sensor_id;sensor_type;location;lat;lon;timestamp;P1;durP1;ratioP1;P2;durP2;ratioP2
22861;SDS011;11598;50.652;6.172;2024-03-23T00:55:07;24.20;;;4.60;;
22861;SDS011;11598;50.652;6.172;2024-03-23T01:05:08;29.85;;;5.05;;
22861;SDS011;11598;50.652;6.172;2024-03-23T01:15:08;23.27;;;4.80;;
22861;SDS011;11598;50.652;6.172;2024-03-23T01:25:09;25.40;;;3.38;;
22861;SDS011;11598;50.652;6.172;2024-03-23T01:35:09;24.17;;;4.40;;
22861;SDS011;11598;50.652;6.172;2024-03-23T01:45:10;41.33;;;4.53;;
22861;SDS011;11598;50.652;6.172;2024-03-23T01:55:10;17.90;;;3.35;;
22861;SDS011;11598;50.652;6.172;2024-03-23T02:05:11;6.80;;;2.35;;
22861;SDS011;11598;50.652;6.172;2024-03-23T02:15:12;29.95;;;4.10;;
22861;SDS011;11598;50.652;6.172;2024-03-23T02:25:12;47.50;;;5.50;;
22861;SDS011;11598;50.652;6.172;2024-03-23T02:35:13;17.98;;;3.22;;
22861;SDS011;11598;50.652;6.172;2024-03-23T02:45:13;30.80;;;3.07;;
22861;SDS011;11598;50.652;6.172;2024-03-23T02:55:14;52.97;;;4.68;;
22861;SDS011;11598;50.652;6.172;2024-03-23T03:05:15;165.65;;;12.00;;
22861;SDS011;11598;50.652;6.172;2024-03-23T03:15:15;60.38;;;5.57;;
22861;SDS011;11598;50.652;6.172;2024-03-23T03:25:15;161.68;;;11.23;;
22861;SDS011;11598;50.652;6.172;2024-03-23T03:35:16;46.55;;;4.35;;
22861;SDS011;11598;50.652;6.172;2024-03-23T03:45:16;198.10;;;14.73;;
22861;SDS011;11598;50.652;6.172;2024-03-23T03:55:16;34.13;;;3.50;;
22861;SDS011;11598;50.652;6.172;2024-03-23T04:05:17;178.77;;;13.07;;
22861;SDS011;11598;50.652;6.172;2024-03-23T04:15:17;26.52;;;3.45;;
22861;SDS011;11598;50.652;6.172;2024-03-23T04:25:18;36.85;;;3.97;;
22861;SDS011;11598;50.652;6.172;2024-03-23T04:35:19;39.78;;;4.70;;
22861;SDS011;11598;50.652;6.172;2024-03-23T04:45:22;38.03;;;3.85;;
22861;SDS011;11598;50.652;6.172;2024-03-23T04:55:22;28.38;;;3.58;;
22861;SDS011;11598;50.652;6.172;2024-03-23T05:05:23;27.60;;;4.20;;
22861;SDS011;11598;50.652;6.172;2024-03-23T05:15:23;34.58;;;5.50;;
22861;SDS011;11598;50.652;6.172;2024-03-23T05:25:23;42.78;;;6.40;;
22861;SDS011;11598;50.652;6.172;2024-03-23T05:35:24;63.85;;;7.90;;
22861;SDS011;11598;50.652;6.172;2024-03-23T05:45:24;59.95;;;8.40;;
22861;SDS011;11598;50.652;6.172;2024-03-23T05:55:24;65.57;;;7.55;;
22861;SDS011;11598;50.652;6.172;2024-03-23T06:05:25;88.32;;;10.50;;
22861;SDS011;11598;50.652;6.172;2024-03-23T06:15:25;49.75;;;12.23;;
22861;SDS011;11598;50.652;6.172;2024-03-23T06:25:27;46.15;;;12.35;;
22861;SDS011;11598;50.652;6.172;2024-03-23T06:35:27;58.33;;;14.20;;
22861;SDS011;11598;50.652;6.172;2024-03-23T06:45:28;51.75;;;15.13;;
22861;SDS011;11598;50.652;6.172;2024-03-23T06:55:28;90.68;;;19.67;;
22861;SDS011;11598;50.652;6.172;2024-03-23T07:05:29;60.22;;;17.67;;
22861;SDS011;11598;50.652;6.172;2024-03-23T07:15:29;87.97;;;20.27;;
22861;SDS011;11598;50.652;6.172;2024-03-23T07:25:30;70.47;;;19.67;;
22861;SDS011;11598;50.652;6.172;2024-03-23T07:35:31;57.20;;;17.02;;
22861;SDS011;11598;50.652;6.172;2024-03-23T07:45:32;38.13;;;11.43;;
22861;SDS011;11598;50.652;6.172;2024-03-23T07:55:32;33.10;;;7.85;;
22861;SDS011;11598;50.652;6.172;2024-03-23T08:05:32;21.40;;;6.25;;
22861;SDS011;11598;50.652;6.172;2024-03-23T08:15:34;22.50;;;5.13;;
22861;SDS011;11598;50.652;6.172;2024-03-23T08:25:34;27.45;;;6.13;;
22861;SDS011;11598;50.652;6.172;2024-03-23T08:35:35;24.52;;;6.88;;
22861;SDS011;11598;50.652;6.172;2024-03-23T08:45:36;31.27;;;8.23;;
22861;SDS011;11598;50.652;6.172;2024-03-23T08:55:36;31.73;;;8.45;;
22861;SDS011;11598;50.652;6.172;2024-03-23T09:05:39;30.20;;;9.43;;
22861;SDS011;11598;50.652;6.172;2024-03-23T09:15:50;28.83;;;8.65;;
22861;SDS011;11598;50.652;6.172;2024-03-23T09:25:51;28.95;;;8.48;;
22861;SDS011;11598;50.652;6.172;2024-03-23T09:35:52;10.52;;;1.30;;
22861;SDS011;11598;50.652;6.172;2024-03-23T09:45:53;7.53;;;1.20;;
22861;SDS011;11598;50.652;6.172;2024-03-23T09:55:53;7.97;;;1.70;;
22861;SDS011;11598;50.652;6.172;2024-03-23T10:06:00;24.95;;;3.90;;
22861;SDS011;11598;50.652;6.172;2024-03-23T10:16:04;13.48;;;4.60;;
22861;SDS011;11598;50.652;6.172;2024-03-23T10:26:17;19.13;;;4.75;;
22861;SDS011;11598;50.652;6.172;2024-03-23T10:36:21;21.73;;;6.80;;
22861;SDS011;11598;50.652;6.172;2024-03-23T10:46:22;29.23;;;8.48;;
22861;SDS011;11598;50.652;6.172;2024-03-23T10:56:23;28.00;;;10.95;;
22861;SDS011;11598;50.652;6.172;2024-03-23T11:06:37;34.10;;;11.85;;
22861;SDS011;11598;50.652;6.172;2024-03-23T11:16:38;32.38;;;9.68;;
22861;SDS011;11598;50.652;6.172;2024-03-23T11:26:39;23.27;;;7.90;;
22861;SDS011;11598;50.652;6.172;2024-03-23T11:36:40;22.88;;;9.50;;
22861;SDS011;11598;50.652;6.172;2024-03-23T11:46:40;21.85;;;6.65;;
22861;SDS011;11598;50.652;6.172;2024-03-23T11:56:41;19.30;;;5.57;;
22861;SDS011;11598;50.652;6.172;2024-03-23T12:07:13;17.25;;;4.85;;
22861;SDS011;11598;50.652;6.172;2024-03-23T12:17:14;14.68;;;3.20;;
22861;SDS011;11598;50.652;6.172;2024-03-23T12:27:15;12.90;;;2.92;;
22861;SDS011;11598;50.652;6.172;2024-03-23T12:37:15;9.90;;;2.58;;
22861;SDS011;11598;50.652;6.172;2024-03-23T12:47:17;11.70;;;3.05;;
22861;SDS011;11598;50.652;6.172;2024-03-23T12:57:17;9.65;;;1.95;;
22861;SDS011;11598;50.652;6.172;2024-03-23T13:07:18;8.15;;;1.67;;
22861;SDS011;11598;50.652;6.172;2024-03-23T13:17:19;10.25;;;1.58;;
22861;SDS011;11598;50.652;6.172;2024-03-23T13:27:20;11.18;;;2.67;;
22861;SDS011;11598;50.652;6.172;2024-03-23T13:37:20;9.85;;;1.67;;
22861;SDS011;11598;50.652;6.172;2024-03-23T13:47:20;4.93;;;1.50;;
22861;SDS011;11598;50.652;6.172;2024-03-23T13:57:21;6.35;;;1.35;;
22861;SDS011;11598;50.652;6.172;2024-03-23T14:07:23;12.05;;;1.45;;
22861;SDS011;11598;50.652;6.172;2024-03-23T14:17:23;7.75;;;1.10;;
22861;SDS011;11598;50.652;6.172;2024-03-23T14:27:24;9.00;;;1.52;;
22861;SDS011;11598;50.652;6.172;2024-03-23T14:37:24;11.18;;;2.00;;
22861;SDS011;11598;50.652;6.172;2024-03-23T14:47:24;9.63;;;1.50;;
22861;SDS011;11598;50.652;6.172;2024-03-23T14:57:25;11.48;;;1.40;;
22861;SDS011;11598;50.652;6.172;2024-03-23T15:07:25;8.27;;;1.35;;
22861;SDS011;11598;50.652;6.172;2024-03-23T15:17:26;13.13;;;2.10;;
22861;SDS011;11598;50.652;6.172;2024-03-23T15:27:26;9.25;;;2.08;;
22861;SDS011;11598;50.652;6.172;2024-03-23T15:37:27;8.35;;;1.50;;
22861;SDS011;11598;50.652;6.172;2024-03-23T15:47:27;8.43;;;1.65;;
22861;SDS011;11598;50.652;6.172;2024-03-23T15:57:27;7.78;;;1.35;;
22861;SDS011;11598;50.652;6.172;2024-03-23T16:07:28;14.65;;;1.55;;
22861;SDS011;11598;50.652;6.172;2024-03-23T16:17:28;7.30;;;1.40;;
22861;SDS011;11598;50.652;6.172;2024-03-23T16:27:29;7.72;;;1.60;;
22861;SDS011;11598;50.652;6.172;2024-03-23T16:37:29;12.68;;;1.58;;
22861;SDS011;11598;50.652;6.172;2024-03-23T16:47:29;13.63;;;1.50;;
22861;SDS011;11598;50.652;6.172;2024-03-23T16:57:30;11.55;;;1.60;;
22861;SDS011;11598;50.652;6.172;2024-03-23T17:07:31;9.90;;;1.55;;
22861;SDS011;11598;50.652;6.172;2024-03-23T17:17:31;12.63;;;1.47;;
22861;SDS011;11598;50.652;6.172;2024-03-23T17:27:32;6.13;;;1.13;;
22861;SDS011;11598;50.652;6.172;2024-03-23T17:37:32;8.82;;;1.42;;
22861;SDS011;11598;50.652;6.172;2024-03-23T17:47:35;11.40;;;1.90;;
22861;SDS011;11598;50.652;6.172;2024-03-23T17:57:39;11.30;;;1.08;;
22861;SDS011;11598;50.652;6.172;2024-03-23T18:07:40;7.28;;;1.27;;
22861;SDS011;11598;50.652;6.172;2024-03-23T18:17:40;8.40;;;1.30;;
22861;SDS011;11598;50.652;6.172;2024-03-23T18:27:40;13.80;;;1.63;;
22861;SDS011;11598;50.652;6.172;2024-03-23T18:37:41;12.85;;;1.10;;
22861;SDS011;11598;50.652;6.172;2024-03-23T18:47:41;10.93;;;1.50;;
22861;SDS011;11598;50.652;6.172;2024-03-23T18:57:41;9.70;;;1.25;;
22861;SDS011;11598;50.652;6.172;2024-03-23T19:07:42;9.27;;;1.83;;
22861;SDS011;11598;50.652;6.172;2024-03-23T19:17:42;8.60;;;1.55;;
22861;SDS011;11598;50.652;6.172;2024-03-23T19:27:43;10.57;;;1.08;;
22861;SDS011;11598;50.652;6.172;2024-03-23T19:37:43;8.23;;;1.90;;
22861;SDS011;11598;50.652;6.172;2024-03-23T19:47:43;12.48;;;1.83;;
22861;SDS011;11598;50.652;6.172;2024-03-23T19:57:45;11.55;;;3.05;;
22861;SDS011;11598;50.652;6.172;2024-03-23T20:07:46;12.20;;;3.00;;
22861;SDS011;11598;50.652;6.172;2024-03-23T20:17:46;20.15;;;3.40;;
22861;SDS011;11598;50.652;6.172;2024-03-23T20:27:48;10.03;;;2.70;;
22861;SDS011;11598;50.652;6.172;2024-03-23T20:37:48;8.40;;;1.73;;
22861;SDS011;11598;50.652;6.172;2024-03-23T20:47:48;9.13;;;2.30;;
22861;SDS011;11598;50.652;6.172;2024-03-23T20:57:49;11.38;;;2.22;;
22861;SDS011;11598;50.652;6.172;2024-03-23T21:07:49;10.20;;;2.15;;
22861;SDS011;11598;50.652;6.172;2024-03-23T21:17:50;10.73;;;2.33;;
22861;SDS011;11598;50.652;6.172;2024-03-23T21:27:50;6.45;;;1.73;;
22861;SDS011;11598;50.652;6.172;2024-03-23T21:37:50;8.52;;;2.13;;
22861;SDS011;11598;50.652;6.172;2024-03-23T21:47:51;11.15;;;1.80;;
22861;SDS011;11598;50.652;6.172;2024-03-23T21:57:52;4.18;;;1.67;;
22861;SDS011;11598;50.652;6.172;2024-03-23T22:07:52;8.82;;;2.70;;
22861;SDS011;11598;50.652;6.172;2024-03-23T22:17:52;9.93;;;2.80;;
22861;SDS011;11598;50.652;6.172;2024-03-23T22:27:53;9.07;;;2.45;;
22861;SDS011;11598;50.652;6.172;2024-03-23T22:37:53;6.72;;;2.53;;
22861;SDS011;11598;50.652;6.172;2024-03-23T22:47:53;11.35;;;2.72;;
22861;SDS011;11598;50.652;6.172;2024-03-23T22:57:55;10.23;;;2.53;;
22861;SDS011;11598;50.652;6.172;2024-03-23T23:07:56;11.57;;;2.63;;
22861;SDS011;11598;50.652;6.172;2024-03-23T23:17:56;7.93;;;1.98;;
22861;SDS011;11598;50.652;6.172;2024-03-23T23:27:56;9.93;;;2.83;;
22861;SDS011;11598;50.652;6.172;2024-03-23T23:37:57;10.90;;;2.63;;
22861;SDS011;11598;50.652;6.172;2024-03-23T23:47:57;7.90;;;2.80;;
22861;SDS011;11598;50.652;6.172;2024-03-23T23:57:57;9.00;;;2.50;;
